sensor_id;sensor_type;location;lat;lon;timestamp;pressure;altitude;pressure_sealevel;temperature;humidity
12868;BME280;33517;49.866;8.320;2023-05-29T00:00:22;100643.28;;;15.93;56.46
12868;BME280;33517;49.866;8.320;2023-05-29T00:03:14;100635.72;;;15.90;56.59
12868;BME280;33517;49.866;8.320;2023-05-29T00:06:08;100644.53;;;15.97;56.46
12868;BME280;33517;49.866;8.320;2023-05-29T00:09:02;100634.78;;;16.04;55.71
12868;BME280;33517;49.866;8.320;2023-05-29T00:11:54;100631.75;;;16.07;56.53
12868;BME280;33517;49.866;8.320;2023-05-29T00:14:46;100633.56;;;16.06;56.13
12868;BME280;33517;49.866;8.320;2023-05-29T00:17:38;100642.34;;;16.07;56.62
12868;BME280;33517;49.866;8.320;2023-05-29T00:20:30;100641.94;;;16.10;56.12
12868;BME280;33517;49.866;8.320;2023-05-29T00:23:24;100641.78;;;16.11;55.82
12868;BME280;33517;49.866;8.320;2023-05-29T00:26:17;100636.69;;;16.16;55.64
12868;BME280;33517;49.866;8.320;2023-05-29T00:29:09;100641.44;;;16.27;55.05
12868;BME280;33517;49.866;8.320;2023-05-29T00:32:01;100640.03;;;16.31;55.07
12868;BME280;33517;49.866;8.320;2023-05-29T00:34:53;100628.59;;;16.31;54.82
12868;BME280;33517;49.866;8.320;2023-05-29T00:37:45;100624.69;;;16.27;55.49
12868;BME280;33517;49.866;8.320;2023-05-29T00:40:37;100622.59;;;16.16;55.83
12868;BME280;33517;49.866;8.320;2023-05-29T00:43:32;100618.03;;;16.03;55.55
12868;BME280;33517;49.866;8.320;2023-05-29T00:46:24;100629.16;;;15.86;55.50
12868;BME280;33517;49.866;8.320;2023-05-29T00:49:16;100625.56;;;15.72;55.98
12868;BME280;33517;49.866;8.320;2023-05-29T00:52:09;100623.25;;;15.62;56.40
12868;BME280;33517;49.866;8.320;2023-05-29T00:55:02;100634.00;;;15.54;56.86
12868;BME280;33517;49.866;8.320;2023-05-29T00:57:55;100621.06;;;15.45;56.74
12868;BME280;33517;49.866;8.320;2023-05-29T01:00:48;100623.03;;;15.36;57.10
12868;BME280;33517;49.866;8.320;2023-05-29T01:03:42;100616.81;;;15.29;57.00
12868;BME280;33517;49.866;8.320;2023-05-29T01:06:35;100620.41;;;15.22;57.74
12868;BME280;33517;49.866;8.320;2023-05-29T01:09:27;100628.13;;;15.17;57.95
12868;BME280;33517;49.866;8.320;2023-05-29T01:12:29;100631.09;;;15.07;57.64
12868;BME280;33517;49.866;8.320;2023-05-29T01:15:33;100628.31;;;14.94;57.56
12868;BME280;33517;49.866;8.320;2023-05-29T01:18:37;100628.19;;;14.81;57.90
12868;BME280;33517;49.866;8.320;2023-05-29T01:21:42;100626.81;;;14.70;57.96
12868;BME280;33517;49.866;8.320;2023-05-29T01:24:48;100627.09;;;14.61;58.25
12868;BME280;33517;49.866;8.320;2023-05-29T01:27:43;100630.69;;;14.53;58.08
12868;BME280;33517;49.866;8.320;2023-05-29T01:30:39;100622.47;;;14.48;58.55
12868;BME280;33517;49.866;8.320;2023-05-29T01:33:32;100622.00;;;14.59;62.25
12868;BME280;33517;49.866;8.320;2023-05-29T01:36:24;100620.88;;;14.68;60.41
12868;BME280;33517;49.866;8.320;2023-05-29T01:39:17;100623.47;;;14.62;60.61
12868;BME280;33517;49.866;8.320;2023-05-29T01:42:09;100621.91;;;14.53;59.59
12868;BME280;33517;49.866;8.320;2023-05-29T01:45:04;100616.56;;;14.46;60.28
12868;BME280;33517;49.866;8.320;2023-05-29T01:47:57;100622.47;;;14.34;59.50
12868;BME280;33517;49.866;8.320;2023-05-29T01:50:49;100621.09;;;14.23;59.42
12868;BME280;33517;49.866;8.320;2023-05-29T01:53:42;100619.72;;;14.13;60.19
12868;BME280;33517;49.866;8.320;2023-05-29T01:56:34;100626.13;;;14.04;60.12
12868;BME280;33517;49.866;8.320;2023-05-29T01:59:27;100629.69;;;13.96;60.86
12868;BME280;33517;49.866;8.320;2023-05-29T02:02:22;100624.47;;;13.88;61.31
12868;BME280;33517;49.866;8.320;2023-05-29T02:05:14;100622.19;;;13.85;61.82
12868;BME280;33517;49.866;8.320;2023-05-29T02:08:07;100622.38;;;13.83;61.67
12868;BME280;33517;49.866;8.320;2023-05-29T02:10:59;100622.44;;;13.75;61.76
12868;BME280;33517;49.866;8.320;2023-05-29T02:13:51;100618.72;;;13.70;61.33
12868;BME280;33517;49.866;8.320;2023-05-29T02:16:44;100613.94;;;13.65;62.23
12868;BME280;33517;49.866;8.320;2023-05-29T02:19:38;100615.03;;;13.56;61.79
12868;BME280;33517;49.866;8.320;2023-05-29T02:22:29;100622.84;;;13.50;62.25
12868;BME280;33517;49.866;8.320;2023-05-29T02:25:21;100615.81;;;13.42;62.26
12868;BME280;33517;49.866;8.320;2023-05-29T02:28:13;100614.88;;;13.35;62.44
12868;BME280;33517;49.866;8.320;2023-05-29T02:31:05;100616.75;;;13.27;61.99
12868;BME280;33517;49.866;8.320;2023-05-29T02:33:57;100615.81;;;13.20;62.52
12868;BME280;33517;49.866;8.320;2023-05-29T02:36:51;100616.72;;;13.12;62.60
12868;BME280;33517;49.866;8.320;2023-05-29T02:39:43;100616.41;;;13.07;62.90
12868;BME280;33517;49.866;8.320;2023-05-29T02:42:35;100615.44;;;13.00;62.45
12868;BME280;33517;49.866;8.320;2023-05-29T02:45:27;100622.06;;;12.96;63.34
12868;BME280;33517;49.866;8.320;2023-05-29T02:48:19;100625.06;;;12.93;63.58
12868;BME280;33517;49.866;8.320;2023-05-29T02:51:11;100620.94;;;12.90;63.75
12868;BME280;33517;49.866;8.320;2023-05-29T02:54:04;100624.94;;;12.86;62.95
12868;BME280;33517;49.866;8.320;2023-05-29T02:56:56;100622.00;;;12.81;64.20
12868;BME280;33517;49.866;8.320;2023-05-29T02:59:48;100621.53;;;12.78;63.73
12868;BME280;33517;49.866;8.320;2023-05-29T03:02:40;100618.56;;;12.73;63.70
12868;BME280;33517;49.866;8.320;2023-05-29T03:05:32;100620.75;;;12.69;64.01
12868;BME280;33517;49.866;8.320;2023-05-29T03:08:24;100624.91;;;12.64;64.96
12868;BME280;33517;49.866;8.320;2023-05-29T03:11:19;100618.50;;;12.58;64.03
12868;BME280;33517;49.866;8.320;2023-05-29T03:14:13;100619.00;;;12.54;64.19
12868;BME280;33517;49.866;8.320;2023-05-29T03:17:06;100617.56;;;12.51;64.65
12868;BME280;33517;49.866;8.320;2023-05-29T03:19:58;100617.41;;;12.45;64.95
12868;BME280;33517;49.866;8.320;2023-05-29T03:22:49;100615.13;;;12.42;64.77
12868;BME280;33517;49.866;8.320;2023-05-29T03:25:41;100620.06;;;12.37;65.19
12868;BME280;33517;49.866;8.320;2023-05-29T03:28:34;100610.84;;;12.33;65.08
12868;BME280;33517;49.866;8.320;2023-05-29T03:31:26;100622.41;;;12.32;65.34
12868;BME280;33517;49.866;8.320;2023-05-29T03:34:18;100630.66;;;12.29;66.07
12868;BME280;33517;49.866;8.320;2023-05-29T03:37:10;100631.66;;;12.28;65.55
12868;BME280;33517;49.866;8.320;2023-05-29T03:40:03;100641.22;;;12.29;66.10
12868;BME280;33517;49.866;8.320;2023-05-29T03:42:55;100640.88;;;12.32;66.07
12868;BME280;33517;49.866;8.320;2023-05-29T03:45:49;100645.00;;;12.34;66.19
12868;BME280;33517;49.866;8.320;2023-05-29T03:48:40;100632.78;;;12.33;66.55
12868;BME280;33517;49.866;8.320;2023-05-29T03:51:32;100643.34;;;12.33;66.65
12868;BME280;33517;49.866;8.320;2023-05-29T03:54:24;100639.06;;;12.32;66.60
12868;BME280;33517;49.866;8.320;2023-05-29T03:57:16;100649.63;;;12.32;66.37
12868;BME280;33517;49.866;8.320;2023-05-29T04:00:09;100654.72;;;12.34;67.60
12868;BME280;33517;49.866;8.320;2023-05-29T04:03:03;100661.31;;;12.38;67.64
12868;BME280;33517;49.866;8.320;2023-05-29T04:05:55;100675.47;;;12.45;66.63
12868;BME280;33517;49.866;8.320;2023-05-29T04:08:47;100677.25;;;12.52;68.33
12868;BME280;33517;49.866;8.320;2023-05-29T04:11:39;100680.16;;;12.65;68.94
12868;BME280;33517;49.866;8.320;2023-05-29T04:14:32;100683.72;;;12.80;nan
12868;BME280;33517;49.866;8.320;2023-05-29T04:17:24;100689.44;;;12.92;69.29
12868;BME280;33517;49.866;8.320;2023-05-29T04:20:17;100688.38;;;13.09;69.40
12868;BME280;33517;49.866;8.320;2023-05-29T04:23:09;100689.78;;;13.28;70.50
12868;BME280;33517;49.866;8.320;2023-05-29T04:26:00;100704.16;;;13.48;68.97
12868;BME280;33517;49.866;8.320;2023-05-29T04:28:53;100708.31;;;13.65;68.67
12868;BME280;33517;49.866;8.320;2023-05-29T04:31:48;100708.38;;;13.79;68.52
12868;BME280;33517;49.866;8.320;2023-05-29T04:34:41;100712.22;;;13.92;68.19
12868;BME280;33517;49.866;8.320;2023-05-29T04:37:36;100716.72;;;14.06;67.85
12868;BME280;33517;49.866;8.320;2023-05-29T04:40:28;100722.16;;;14.27;67.54
12868;BME280;33517;49.866;8.320;2023-05-29T04:43:22;100706.31;;;14.56;67.88
12868;BME280;33517;49.866;8.320;2023-05-29T04:46:16;100715.97;;;14.78;67.14
12868;BME280;33517;49.866;8.320;2023-05-29T04:49:08;100717.78;;;14.92;67.33
12868;BME280;33517;49.866;8.320;2023-05-29T04:52:00;100720.19;;;15.08;66.74
12868;BME280;33517;49.866;8.320;2023-05-29T04:54:54;100723.06;;;15.28;66.96
12868;BME280;33517;49.866;8.320;2023-05-29T04:57:47;100721.84;;;15.45;66.83
12868;BME280;33517;49.866;8.320;2023-05-29T05:00:38;100729.56;;;15.61;66.72
12868;BME280;33517;49.866;8.320;2023-05-29T05:03:30;100735.81;;;15.75;66.35
12868;BME280;33517;49.866;8.320;2023-05-29T05:06:24;100740.84;;;15.91;66.13
12868;BME280;33517;49.866;8.320;2023-05-29T05:09:16;100742.19;;;16.01;65.99
12868;BME280;33517;49.866;8.320;2023-05-29T05:12:10;100745.75;;;16.15;65.73
12868;BME280;33517;49.866;8.320;2023-05-29T05:15:02;100747.94;;;16.32;65.71
12868;BME280;33517;49.866;8.320;2023-05-29T05:17:54;100751.69;;;16.44;65.37
12868;BME280;33517;49.866;8.320;2023-05-29T05:20:46;100750.16;;;16.56;64.42
12868;BME280;33517;49.866;8.320;2023-05-29T05:23:38;100753.28;;;16.67;64.12
12868;BME280;33517;49.866;8.320;2023-05-29T05:26:30;100751.53;;;16.80;63.91
12868;BME280;33517;49.866;8.320;2023-05-29T05:29:23;100750.34;;;16.96;63.69
12868;BME280;33517;49.866;8.320;2023-05-29T05:32:15;100764.72;;;17.08;63.61
12868;BME280;33517;49.866;8.320;2023-05-29T05:35:07;100762.31;;;17.19;63.40
12868;BME280;33517;49.866;8.320;2023-05-29T05:38:01;100755.19;;;17.33;62.68
12868;BME280;33517;49.866;8.320;2023-05-29T05:40:53;100765.88;;;17.46;61.93
12868;BME280;33517;49.866;8.320;2023-05-29T05:43:45;100761.84;;;17.57;61.59
12868;BME280;33517;49.866;8.320;2023-05-29T05:46:38;100774.38;;;17.76;61.03
12868;BME280;33517;49.866;8.320;2023-05-29T05:49:30;100771.94;;;17.87;60.71
12868;BME280;33517;49.866;8.320;2023-05-29T05:52:23;100767.22;;;18.02;60.31
12868;BME280;33517;49.866;8.320;2023-05-29T05:55:15;100777.28;;;18.13;59.86
12868;BME280;33517;49.866;8.320;2023-05-29T05:58:07;100774.81;;;18.25;59.51
12868;BME280;33517;49.866;8.320;2023-05-29T06:00:59;100772.97;;;18.25;59.10
12868;BME280;33517;49.866;8.320;2023-05-29T06:03:53;100777.25;;;18.39;59.53
12868;BME280;33517;49.866;8.320;2023-05-29T06:06:44;100782.41;;;18.54;58.99
12868;BME280;33517;49.866;8.320;2023-05-29T06:09:36;100785.00;;;18.87;58.57
12868;BME280;33517;49.866;8.320;2023-05-29T06:12:28;100783.63;;;19.22;58.08
12868;BME280;33517;49.866;8.320;2023-05-29T06:15:20;100781.38;;;19.94;56.40
12868;BME280;33517;49.866;8.320;2023-05-29T06:18:12;100781.50;;;22.63;50.29
12868;BME280;33517;49.866;8.320;2023-05-29T06:21:05;100785.56;;;25.76;43.34
12868;BME280;33517;49.866;8.320;2023-05-29T06:23:57;100797.41;;;27.26;39.84
12868;BME280;33517;49.866;8.320;2023-05-29T06:26:49;100796.50;;;28.23;37.74
12868;BME280;33517;49.866;8.320;2023-05-29T06:29:41;100799.59;;;29.05;35.55
12868;BME280;33517;49.866;8.320;2023-05-29T06:32:33;100797.94;;;29.68;33.89
12868;BME280;33517;49.866;8.320;2023-05-29T06:35:25;100797.66;;;29.70;33.37
12868;BME280;33517;49.866;8.320;2023-05-29T06:38:18;100805.69;;;30.24;33.33
12868;BME280;33517;49.866;8.320;2023-05-29T06:41:10;100801.84;;;30.30;32.99
12868;BME280;33517;49.866;8.320;2023-05-29T06:44:02;100795.75;;;30.71;31.92
12868;BME280;33517;49.866;8.320;2023-05-29T06:46:54;100796.81;;;31.60;31.47
12868;BME280;33517;49.866;8.320;2023-05-29T06:49:45;100792.09;;;31.84;30.62
12868;BME280;33517;49.866;8.320;2023-05-29T06:52:37;100778.38;;;32.40;29.71
12868;BME280;33517;49.866;8.320;2023-05-29T06:55:31;100781.28;;;31.98;29.64
12868;BME280;33517;49.866;8.320;2023-05-29T06:58:22;100785.41;;;31.95;28.96
12868;BME280;33517;49.866;8.320;2023-05-29T07:01:14;100783.56;;;31.91;29.19
12868;BME280;33517;49.866;8.320;2023-05-29T07:04:07;100787.00;;;33.15;28.26
12868;BME280;33517;49.866;8.320;2023-05-29T07:06:59;100785.44;;;33.49;27.75
12868;BME280;33517;49.866;8.320;2023-05-29T07:09:51;100788.56;;;33.57;27.58
12868;BME280;33517;49.866;8.320;2023-05-29T07:12:44;100785.53;;;34.47;27.06
12868;BME280;33517;49.866;8.320;2023-05-29T07:15:37;100793.13;;;34.97;26.20
12868;BME280;33517;49.866;8.320;2023-05-29T07:18:29;100791.69;;;34.61;26.33
12868;BME280;33517;49.866;8.320;2023-05-29T07:21:21;100793.44;;;35.69;26.25
12868;BME280;33517;49.866;8.320;2023-05-29T07:24:12;100790.34;;;36.05;24.43
12868;BME280;33517;49.866;8.320;2023-05-29T07:27:04;100790.22;;;35.50;25.56
12868;BME280;33517;49.866;8.320;2023-05-29T07:29:58;100794.22;;;35.78;24.92
12868;BME280;33517;49.866;8.320;2023-05-29T07:32:49;100793.09;;;35.71;24.21
12868;BME280;33517;49.866;8.320;2023-05-29T07:35:41;100801.50;;;36.00;24.40
12868;BME280;33517;49.866;8.320;2023-05-29T07:38:33;100807.09;;;36.12;24.67
12868;BME280;33517;49.866;8.320;2023-05-29T07:41:25;100795.53;;;36.99;24.20
12868;BME280;33517;49.866;8.320;2023-05-29T07:44:18;100797.09;;;36.71;23.74
12868;BME280;33517;49.866;8.320;2023-05-29T07:47:11;100802.53;;;36.33;24.00
12868;BME280;33517;49.866;8.320;2023-05-29T07:50:03;100792.81;;;36.53;24.20
12868;BME280;33517;49.866;8.320;2023-05-29T07:52:56;100796.59;;;36.23;23.37
12868;BME280;33517;49.866;8.320;2023-05-29T07:55:48;100791.78;;;37.53;22.42
12868;BME280;33517;49.866;8.320;2023-05-29T07:58:40;100794.13;;;37.43;22.94
12868;BME280;33517;49.866;8.320;2023-05-29T08:01:32;100798.84;;;36.75;22.19
12868;BME280;33517;49.866;8.320;2023-05-29T08:04:26;100793.28;;;36.92;22.99
12868;BME280;33517;49.866;8.320;2023-05-29T08:07:17;100804.59;;;37.20;22.82
12868;BME280;33517;49.866;8.320;2023-05-29T08:10:09;100802.81;;;36.95;22.90
12868;BME280;33517;49.866;8.320;2023-05-29T08:13:01;100806.38;;;37.87;22.46
12868;BME280;33517;49.866;8.320;2023-05-29T08:15:53;100818.66;;;38.54;21.79
12868;BME280;33517;49.866;8.320;2023-05-29T08:18:45;100804.78;;;38.51;21.41
12868;BME280;33517;49.866;8.320;2023-05-29T08:21:38;100808.03;;;38.00;21.73
12868;BME280;33517;49.866;8.320;2023-05-29T08:24:31;100813.81;;;38.39;21.89
12868;BME280;33517;49.866;8.320;2023-05-29T08:27:23;100811.66;;;38.12;21.16
12868;BME280;33517;49.866;8.320;2023-05-29T08:30:15;100815.84;;;39.11;20.57
12868;BME280;33517;49.866;8.320;2023-05-29T08:33:07;100812.44;;;37.80;20.56
12868;BME280;33517;49.866;8.320;2023-05-29T08:35:59;100801.03;;;37.49;20.83
12868;BME280;33517;49.866;8.320;2023-05-29T08:38:53;100803.31;;;37.67;21.08
12868;BME280;33517;49.866;8.320;2023-05-29T08:41:51;100807.69;;;38.22;21.68
12868;BME280;33517;49.866;8.320;2023-05-29T08:44:46;100797.47;;;39.15;20.36
12868;BME280;33517;49.866;8.320;2023-05-29T08:47:40;100804.31;;;38.16;20.26
12868;BME280;33517;49.866;8.320;2023-05-29T08:50:33;100802.06;;;37.98;20.66
12868;BME280;33517;49.866;8.320;2023-05-29T08:53:26;100795.03;;;39.26;20.06
12868;BME280;33517;49.866;8.320;2023-05-29T08:56:19;100797.31;;;39.36;19.48
12868;BME280;33517;49.866;8.320;2023-05-29T08:59:12;100806.44;;;39.64;19.15
12868;BME280;33517;49.866;8.320;2023-05-29T09:02:04;100801.19;;;39.87;19.52
12868;BME280;33517;49.866;8.320;2023-05-29T09:04:57;100809.03;;;40.28;19.63
12868;BME280;33517;49.866;8.320;2023-05-29T09:07:49;100805.94;;;40.76;18.29
12868;BME280;33517;49.866;8.320;2023-05-29T09:10:42;100810.13;;;41.01;19.11
12868;BME280;33517;49.866;8.320;2023-05-29T09:13:35;100801.41;;;41.88;18.45
12868;BME280;33517;49.866;8.320;2023-05-29T09:16:27;100799.19;;;42.16;18.22
12868;BME280;33517;49.866;8.320;2023-05-29T09:19:19;100810.44;;;42.49;17.39
12868;BME280;33517;49.866;8.320;2023-05-29T09:22:12;100804.59;;;41.71;17.75
12868;BME280;33517;49.866;8.320;2023-05-29T09:25:06;100795.84;;;41.69;17.84
12868;BME280;33517;49.866;8.320;2023-05-29T09:27:59;100808.38;;;41.82;18.17
12868;BME280;33517;49.866;8.320;2023-05-29T09:30:54;100800.06;;;41.44;17.37
12868;BME280;33517;49.866;8.320;2023-05-29T09:33:47;100801.00;;;42.50;17.75
12868;BME280;33517;49.866;8.320;2023-05-29T09:36:39;100803.66;;;42.43;18.12
12868;BME280;33517;49.866;8.320;2023-05-29T09:39:31;100802.97;;;42.08;16.93
12868;BME280;33517;49.866;8.320;2023-05-29T09:42:24;100799.81;;;42.51;17.86
12868;BME280;33517;49.866;8.320;2023-05-29T09:45:17;100805.59;;;42.20;17.44
12868;BME280;33517;49.866;8.320;2023-05-29T09:48:14;100793.38;;;42.02;17.34
12868;BME280;33517;49.866;8.320;2023-05-29T09:51:06;100791.97;;;42.34;17.06
12868;BME280;33517;49.866;8.320;2023-05-29T09:54:14;100803.69;;;42.69;17.24
12868;BME280;33517;49.866;8.320;2023-05-29T09:57:06;100806.34;;;42.21;16.94
12868;BME280;33517;49.866;8.320;2023-05-29T10:00:00;100802.47;;;41.83;16.71
12868;BME280;33517;49.866;8.320;2023-05-29T10:02:54;100807.19;;;42.89;17.02
12868;BME280;33517;49.866;8.320;2023-05-29T10:05:49;100787.91;;;42.73;16.95
12868;BME280;33517;49.866;8.320;2023-05-29T10:08:45;100797.59;;;42.60;16.84
12868;BME280;33517;49.866;8.320;2023-05-29T10:11:41;100792.44;;;42.81;16.98
12868;BME280;33517;49.866;8.320;2023-05-29T10:14:34;100796.56;;;42.04;16.82
12868;BME280;33517;49.866;8.320;2023-05-29T10:17:32;100785.13;;;42.05;17.07
12868;BME280;33517;49.866;8.320;2023-05-29T10:20:26;100789.97;;;42.54;17.28
12868;BME280;33517;49.866;8.320;2023-05-29T10:23:25;100786.53;;;42.60;17.33
12868;BME280;33517;49.866;8.320;2023-05-29T10:26:20;100782.88;;;43.61;16.52
12868;BME280;33517;49.866;8.320;2023-05-29T10:29:17;100778.78;;;43.22;16.91
12868;BME280;33517;49.866;8.320;2023-05-29T10:32:18;100781.69;;;44.35;15.71
12868;BME280;33517;49.866;8.320;2023-05-29T10:35:14;100785.47;;;43.80;15.65
12868;BME280;33517;49.866;8.320;2023-05-29T10:38:11;100787.41;;;43.76;15.41
12868;BME280;33517;49.866;8.320;2023-05-29T10:41:30;100779.66;;;43.59;15.50
12868;BME280;33517;49.866;8.320;2023-05-29T10:44:47;100778.19;;;43.35;15.31
12868;BME280;33517;49.866;8.320;2023-05-29T10:47:39;100775.59;;;43.53;15.41
12868;BME280;33517;49.866;8.320;2023-05-29T10:50:35;100786.31;;;43.21;15.57
12868;BME280;33517;49.866;8.320;2023-05-29T10:53:31;100775.66;;;43.89;15.59
12868;BME280;33517;49.866;8.320;2023-05-29T10:56:28;100777.09;;;44.10;15.30
12868;BME280;33517;49.866;8.320;2023-05-29T10:59:22;100782.13;;;43.34;15.49
12868;BME280;33517;49.866;8.320;2023-05-29T11:02:18;100780.22;;;42.41;15.82
12868;BME280;33517;49.866;8.320;2023-05-29T11:05:21;100761.69;;;42.90;15.38
12868;BME280;33517;49.866;8.320;2023-05-29T11:08:14;100768.78;;;43.47;15.52
12868;BME280;33517;49.866;8.320;2023-05-29T11:11:06;100763.09;;;43.33;15.31
12868;BME280;33517;49.866;8.320;2023-05-29T11:14:01;100766.81;;;43.47;16.02
12868;BME280;33517;49.866;8.320;2023-05-29T11:16:57;100767.75;;;43.25;15.13
12868;BME280;33517;49.866;8.320;2023-05-29T11:19:50;100764.38;;;43.39;15.29
12868;BME280;33517;49.866;8.320;2023-05-29T11:22:56;100762.44;;;43.43;14.76
12868;BME280;33517;49.866;8.320;2023-05-29T11:25:52;100765.22;;;42.87;14.64
12868;BME280;33517;49.866;8.320;2023-05-29T11:28:44;100751.53;;;41.65;14.47
12868;BME280;33517;49.866;8.320;2023-05-29T11:31:37;100757.56;;;41.71;15.03
12868;BME280;33517;49.866;8.320;2023-05-29T11:34:32;100759.91;;;42.07;15.19
12868;BME280;33517;49.866;8.320;2023-05-29T11:37:24;100757.88;;;43.01;14.76
12868;BME280;33517;49.866;8.320;2023-05-29T11:40:18;100761.63;;;42.86;14.52
12868;BME280;33517;49.866;8.320;2023-05-29T11:43:12;100752.13;;;43.14;14.93
12868;BME280;33517;49.866;8.320;2023-05-29T11:46:17;100755.78;;;43.84;13.89
12868;BME280;33517;49.866;8.320;2023-05-29T11:49:10;100756.44;;;43.11;13.06
12868;BME280;33517;49.866;8.320;2023-05-29T11:52:07;100752.78;;;43.03;13.62
12868;BME280;33517;49.866;8.320;2023-05-29T11:55:05;100747.44;;;42.65;13.70
12868;BME280;33517;49.866;8.320;2023-05-29T11:58:00;100755.50;;;43.00;14.26
12868;BME280;33517;49.866;8.320;2023-05-29T12:00:52;100759.84;;;43.01;14.12
12868;BME280;33517;49.866;8.320;2023-05-29T12:03:44;100755.28;;;43.42;13.89
12868;BME280;33517;49.866;8.320;2023-05-29T12:06:36;100760.75;;;43.35;13.74
12868;BME280;33517;49.866;8.320;2023-05-29T12:09:30;100743.97;;;43.24;13.50
12868;BME280;33517;49.866;8.320;2023-05-29T12:12:22;100758.09;;;43.78;13.45
12868;BME280;33517;49.866;8.320;2023-05-29T12:15:14;100740.28;;;42.87;14.50
12868;BME280;33517;49.866;8.320;2023-05-29T12:18:07;100747.19;;;43.00;14.69
12868;BME280;33517;49.866;8.320;2023-05-29T12:21:00;100749.44;;;42.20;15.15
12868;BME280;33517;49.866;8.320;2023-05-29T12:23:52;100743.34;;;42.33;14.19
12868;BME280;33517;49.866;8.320;2023-05-29T12:26:46;100741.56;;;41.80;14.44
12868;BME280;33517;49.866;8.320;2023-05-29T12:29:38;100740.38;;;40.89;15.29
12868;BME280;33517;49.866;8.320;2023-05-29T12:32:35;100736.84;;;40.10;16.30
12868;BME280;33517;49.866;8.320;2023-05-29T12:35:28;100731.06;;;37.88;18.47
12868;BME280;33517;49.866;8.320;2023-05-29T12:38:20;100730.25;;;35.74;19.87
12868;BME280;33517;49.866;8.320;2023-05-29T12:41:25;100739.13;;;33.44;22.50
12868;BME280;33517;49.866;8.320;2023-05-29T12:44:19;100719.75;;;31.46;23.76
12868;BME280;33517;49.866;8.320;2023-05-29T12:47:13;100720.81;;;30.89;24.76
12868;BME280;33517;49.866;8.320;2023-05-29T12:50:19;100727.34;;;30.41;25.94
12868;BME280;33517;49.866;8.320;2023-05-29T12:53:12;100717.16;;;29.94;26.40
12868;BME280;33517;49.866;8.320;2023-05-29T12:56:05;100713.97;;;29.87;25.78
12868;BME280;33517;49.866;8.320;2023-05-29T12:58:57;100705.69;;;30.02;26.14
12868;BME280;33517;49.866;8.320;2023-05-29T13:01:50;100704.31;;;30.05;27.23
12868;BME280;33517;49.866;8.320;2023-05-29T13:04:42;100706.91;;;29.91;27.07
12868;BME280;33517;49.866;8.320;2023-05-29T13:07:34;100700.44;;;29.82;27.38
12868;BME280;33517;49.866;8.320;2023-05-29T13:10:27;100702.19;;;29.63;27.81
12868;BME280;33517;49.866;8.320;2023-05-29T13:13:19;100701.44;;;29.57;28.04
12868;BME280;33517;49.866;8.320;2023-05-29T13:16:12;100701.59;;;29.37;28.48
12868;BME280;33517;49.866;8.320;2023-05-29T13:19:06;100708.31;;;29.45;28.52
12868;BME280;33517;49.866;8.320;2023-05-29T13:21:57;100702.06;;;29.44;28.28
12868;BME280;33517;49.866;8.320;2023-05-29T13:24:49;100690.81;;;29.27;28.48
12868;BME280;33517;49.866;8.320;2023-05-29T13:27:43;100698.69;;;29.24;28.70
12868;BME280;33517;49.866;8.320;2023-05-29T13:30:35;100691.03;;;29.36;28.60
12868;BME280;33517;49.866;8.320;2023-05-29T13:33:27;100697.88;;;29.62;28.76
12868;BME280;33517;49.866;8.320;2023-05-29T13:36:20;100693.09;;;29.49;28.16
12868;BME280;33517;49.866;8.320;2023-05-29T13:39:12;100689.34;;;29.45;28.05
12868;BME280;33517;49.866;8.320;2023-05-29T13:42:05;100689.00;;;29.13;28.17
12868;BME280;33517;49.866;8.320;2023-05-29T13:44:57;100693.19;;;28.85;28.21
12868;BME280;33517;49.866;8.320;2023-05-29T13:47:49;100685.78;;;29.00;28.00
12868;BME280;33517;49.866;8.320;2023-05-29T13:50:41;100695.28;;;29.03;28.07
12868;BME280;33517;49.866;8.320;2023-05-29T13:53:34;100690.09;;;29.06;28.48
12868;BME280;33517;49.866;8.320;2023-05-29T13:56:26;100691.16;;;29.05;28.47
12868;BME280;33517;49.866;8.320;2023-05-29T13:59:18;100685.84;;;28.95;28.86
12868;BME280;33517;49.866;8.320;2023-05-29T14:02:11;100678.72;;;29.04;29.08
12868;BME280;33517;49.866;8.320;2023-05-29T14:05:04;100684.69;;;29.06;28.49
12868;BME280;33517;49.866;8.320;2023-05-29T14:07:57;100681.47;;;28.94;28.05
12868;BME280;33517;49.866;8.320;2023-05-29T14:10:50;100683.91;;;28.96;28.47
12868;BME280;33517;49.866;8.320;2023-05-29T14:13:42;100686.91;;;28.99;28.82
12868;BME280;33517;49.866;8.320;2023-05-29T14:16:34;100682.09;;;28.81;29.29
12868;BME280;33517;49.866;8.320;2023-05-29T14:19:26;100674.78;;;28.77;29.48
12868;BME280;33517;49.866;8.320;2023-05-29T14:22:18;100668.38;;;28.63;29.28
12868;BME280;33517;49.866;8.320;2023-05-29T14:25:09;100668.06;;;28.69;29.42
12868;BME280;33517;49.866;8.320;2023-05-29T14:28:03;100669.13;;;28.73;29.33
12868;BME280;33517;49.866;8.320;2023-05-29T14:30:57;100671.78;;;28.83;28.78
12868;BME280;33517;49.866;8.320;2023-05-29T14:33:48;100666.34;;;28.88;29.38
12868;BME280;33517;49.866;8.320;2023-05-29T14:36:40;100679.69;;;28.80;29.35
12868;BME280;33517;49.866;8.320;2023-05-29T14:39:34;100670.81;;;28.64;29.72
12868;BME280;33517;49.866;8.320;2023-05-29T14:42:27;100674.00;;;28.71;29.24
12868;BME280;33517;49.866;8.320;2023-05-29T14:45:20;100672.13;;;28.72;29.00
12868;BME280;33517;49.866;8.320;2023-05-29T14:48:12;100675.13;;;28.70;29.18
12868;BME280;33517;49.866;8.320;2023-05-29T14:51:04;100675.41;;;28.69;30.18
12868;BME280;33517;49.866;8.320;2023-05-29T14:53:56;100677.28;;;28.63;29.80
12868;BME280;33517;49.866;8.320;2023-05-29T14:56:48;100675.16;;;28.60;30.43
12868;BME280;33517;49.866;8.320;2023-05-29T14:59:39;100670.56;;;28.51;30.62
12868;BME280;33517;49.866;8.320;2023-05-29T15:02:33;100667.09;;;28.30;30.77
12868;BME280;33517;49.866;8.320;2023-05-29T15:05:25;100669.81;;;28.30;30.77